sensor_id;sensor_type;location;lat;lon;timestamp;pressure;altitude;pressure_sealevel;temperature;humidity
42169;BME280;27838;43.858;25.974;2023-03-15T00:00:12;100075.94;;;12.53;33.27
42169;BME280;27838;43.858;25.974;2023-03-15T00:02:39;100065.63;;;12.44;33.50
42169;BME280;27838;43.858;25.974;2023-03-15T00:05:06;100071.84;;;12.38;33.60
42169;BME280;27838;43.858;25.974;2023-03-15T00:07:33;100065.03;;;12.28;33.65
42169;BME280;27838;43.858;25.974;2023-03-15T00:09:59;100054.78;;;12.17;33.94
42169;BME280;27838;43.858;25.974;2023-03-15T00:12:26;100055.78;;;12.10;34.08
42169;BME280;27838;43.858;25.974;2023-03-15T00:14:52;100057.75;;;11.97;34.23
42169;BME280;27838;43.858;25.974;2023-03-15T00:17:19;100060.44;;;11.89;34.38
42169;BME280;27838;43.858;25.974;2023-03-15T00:19:47;100046.66;;;11.81;34.22
42169;BME280;27838;43.858;25.974;2023-03-15T00:22:14;100047.63;;;11.74;34.00
42169;BME280;27838;43.858;25.974;2023-03-15T00:24:40;100040.75;;;11.67;33.88
42169;BME280;27838;43.858;25.974;2023-03-15T00:27:08;100036.50;;;11.61;33.72
42169;BME280;27838;43.858;25.974;2023-03-15T00:29:34;100031.41;;;11.55;33.64
42169;BME280;27838;43.858;25.974;2023-03-15T00:32:01;100042.69;;;11.56;33.62
42169;BME280;27838;43.858;25.974;2023-03-15T00:34:27;100044.53;;;11.47;33.86
42169;BME280;27838;43.858;25.974;2023-03-15T00:36:54;100040.41;;;11.32;33.96
42169;BME280;27838;43.858;25.974;2023-03-15T00:39:20;100032.81;;;11.15;34.31
42169;BME280;27838;43.858;25.974;2023-03-15T00:41:50;100032.06;;;11.04;34.41
42169;BME280;27838;43.858;25.974;2023-03-15T00:44:24;100026.03;;;11.02;34.88
42169;BME280;27838;43.858;25.974;2023-03-15T00:46:51;100021.72;;;11.00;34.60
42169;BME280;27838;43.858;25.974;2023-03-15T00:49:17;100011.38;;;10.92;34.85
42169;BME280;27838;43.858;25.974;2023-03-15T00:51:44;100015.75;;;10.90;35.20
42169;BME280;27838;43.858;25.974;2023-03-15T00:54:10;100012.31;;;10.88;34.89
42169;BME280;27838;43.858;25.974;2023-03-15T00:56:39;100000.22;;;10.82;34.87
42169;BME280;27838;43.858;25.974;2023-03-15T00:59:05;100001.16;;;10.76;35.27
42169;BME280;27838;43.858;25.974;2023-03-15T01:01:32;99999.44;;;10.75;34.95
42169;BME280;27838;43.858;25.974;2023-03-15T01:03:59;99995.19;;;10.68;35.37
42169;BME280;27838;43.858;25.974;2023-03-15T01:06:27;99991.72;;;10.66;35.72
42169;BME280;27838;43.858;25.974;2023-03-15T01:08:54;99995.22;;;10.65;35.59
42169;BME280;27838;43.858;25.974;2023-03-15T01:11:25;99992.59;;;10.65;35.26
42169;BME280;27838;43.858;25.974;2023-03-15T01:13:53;99996.97;;;10.63;35.34
42169;BME280;27838;43.858;25.974;2023-03-15T01:16:20;99993.53;;;10.61;35.71
42169;BME280;27838;43.858;25.974;2023-03-15T01:18:48;99997.91;;;10.59;35.45
42169;BME280;27838;43.858;25.974;2023-03-15T01:21:16;99991.78;;;10.60;35.82
42169;BME280;27838;43.858;25.974;2023-03-15T01:23:43;99979.75;;;10.50;36.04
42169;BME280;27838;43.858;25.974;2023-03-15T01:26:12;99978.91;;;10.49;35.93
42169;BME280;27838;43.858;25.974;2023-03-15T01:28:39;99980.63;;;10.52;35.72
42169;BME280;27838;43.858;25.974;2023-03-15T01:31:06;99978.06;;;10.47;35.87
42169;BME280;27838;43.858;25.974;2023-03-15T01:33:32;99976.34;;;10.45;36.03
42169;BME280;27838;43.858;25.974;2023-03-15T01:36:04;99973.78;;;10.40;36.36
42169;BME280;27838;43.858;25.974;2023-03-15T01:38:30;99971.25;;;10.32;36.55
42169;BME280;27838;43.858;25.974;2023-03-15T01:40:58;99973.84;;;10.31;36.82
42169;BME280;27838;43.858;25.974;2023-03-15T01:43:26;99969.69;;;10.16;36.72
42169;BME280;27838;43.858;25.974;2023-03-15T01:46:14;99966.31;;;10.05;36.86
42169;BME280;27838;43.858;25.974;2023-03-15T01:48:56;99963.78;;;9.95;37.26
42169;BME280;27838;43.858;25.974;2023-03-15T01:54:06;99957.84;;;9.82;37.46
42169;BME280;27838;43.858;25.974;2023-03-15T01:56:37;99952.75;;;9.72;37.43
42169;BME280;27838;43.858;25.974;2023-03-15T01:59:09;99951.88;;;9.71;37.82
42169;BME280;27838;43.858;25.974;2023-03-15T02:01:38;99937.19;;;9.66;37.53
42169;BME280;27838;43.858;25.974;2023-03-15T02:04:14;99953.69;;;9.63;38.08
42169;BME280;27838;43.858;25.974;2023-03-15T02:06:43;99954.66;;;9.48;37.97
42169;BME280;27838;43.858;25.974;2023-03-15T02:09:14;99942.66;;;9.32;37.91
42169;BME280;27838;43.858;25.974;2023-03-15T02:11:42;99951.31;;;9.34;38.25
42169;BME280;27838;43.858;25.974;2023-03-15T02:14:11;99960.81;;;9.36;38.54
42169;BME280;27838;43.858;25.974;2023-03-15T02:16:38;99961.69;;;9.37;38.80
42169;BME280;27838;43.858;25.974;2023-03-15T02:19:16;99958.28;;;9.32;38.35
42169;BME280;27838;43.858;25.974;2023-03-15T02:22:03;99955.69;;;9.24;38.42
42169;BME280;27838;43.858;25.974;2023-03-15T02:27:10;99941.81;;;9.28;38.51
42169;BME280;27838;43.858;25.974;2023-03-15T02:29:37;99950.41;;;9.35;38.29
42169;BME280;27838;43.858;25.974;2023-03-15T02:32:03;99952.16;;;9.34;39.01
42169;BME280;27838;43.858;25.974;2023-03-15T02:34:30;99951.31;;;9.34;38.95
42169;BME280;27838;43.858;25.974;2023-03-15T02:36:57;99953.91;;;9.35;38.74
42169;BME280;27838;43.858;25.974;2023-03-15T02:39:23;99944.34;;;9.39;38.52
42169;BME280;27838;43.858;25.974;2023-03-15T02:41:55;99937.41;;;9.35;38.28
42169;BME280;27838;43.858;25.974;2023-03-15T02:44:30;99937.41;;;9.35;39.11
42169;BME280;27838;43.858;25.974;2023-03-15T02:47:02;99940.91;;;9.35;39.21
42169;BME280;27838;43.858;25.974;2023-03-15T02:49:33;99943.50;;;9.35;38.62
42169;BME280;27838;43.858;25.974;2023-03-15T02:52:00;99942.59;;;9.36;38.45
42169;BME280;27838;43.858;25.974;2023-03-15T02:54:27;99941.75;;;9.34;38.47
42169;BME280;27838;43.858;25.974;2023-03-15T02:56:53;99945.22;;;9.35;38.40
42169;BME280;27838;43.858;25.974;2023-03-15T02:59:20;99947.88;;;9.29;38.57
42169;BME280;27838;43.858;25.974;2023-03-15T03:01:47;99950.47;;;9.33;39.03
42169;BME280;27838;43.858;25.974;2023-03-15T03:04:13;99957.38;;;9.31;38.78
42169;BME280;27838;43.858;25.974;2023-03-15T03:06:40;99965.19;;;9.31;38.37
42169;BME280;27838;43.858;25.974;2023-03-15T03:09:09;99967.81;;;9.30;39.12
42169;BME280;27838;43.858;25.974;2023-03-15T03:11:36;99974.75;;;9.27;38.82
42169;BME280;27838;43.858;25.974;2023-03-15T03:14:03;99975.63;;;9.26;38.86
42169;BME280;27838;43.858;25.974;2023-03-15T03:16:30;99973.91;;;9.22;38.83
42169;BME280;27838;43.858;25.974;2023-03-15T03:18:57;99975.66;;;9.23;39.04
42169;BME280;27838;43.858;25.974;2023-03-15T03:21:23;99962.66;;;9.25;39.04
42169;BME280;27838;43.858;25.974;2023-03-15T03:23:50;99946.22;;;9.18;39.17
42169;BME280;27838;43.858;25.974;2023-03-15T03:26:18;99955.69;;;9.27;39.03
42169;BME280;27838;43.858;25.974;2023-03-15T03:28:46;99957.38;;;9.31;38.72
42169;BME280;27838;43.858;25.974;2023-03-15T03:31:22;99960.88;;;9.30;38.42
42169;BME280;27838;43.858;25.974;2023-03-15T03:33:49;99963.50;;;9.22;38.78
42169;BME280;27838;43.858;25.974;2023-03-15T03:36:16;99962.66;;;9.22;39.23
42169;BME280;27838;43.858;25.974;2023-03-15T03:38:44;99961.78;;;9.23;38.94
42169;BME280;27838;43.858;25.974;2023-03-15T03:41:12;99958.31;;;9.22;39.66
42169;BME280;27838;43.858;25.974;2023-03-15T03:43:39;99960.97;;;9.19;39.21
42169;BME280;27838;43.858;25.974;2023-03-15T03:46:06;99952.31;;;9.14;39.55
42169;BME280;27838;43.858;25.974;2023-03-15T03:48:32;99956.69;;;9.09;39.47
42169;BME280;27838;43.858;25.974;2023-03-15T03:50:59;99958.44;;;9.07;39.63
42169;BME280;27838;43.858;25.974;2023-03-15T03:53:25;99948.91;;;9.01;39.99
42169;BME280;27838;43.858;25.974;2023-03-15T03:55:52;99942.88;;;8.98;40.08
42169;BME280;27838;43.858;25.974;2023-03-15T03:58:20;99944.53;;;9.08;40.03
42169;BME280;27838;43.858;25.974;2023-03-15T04:00:46;99944.53;;;9.08;39.82
42169;BME280;27838;43.858;25.974;2023-03-15T04:03:13;99954.06;;;9.11;39.90
42169;BME280;27838;43.858;25.974;2023-03-15T04:05:40;99944.53;;;9.11;39.63
42169;BME280;27838;43.858;25.974;2023-03-15T04:08:07;99946.28;;;9.11;39.58
42169;BME280;27838;43.858;25.974;2023-03-15T04:10:33;99940.25;;;9.07;39.86
42169;BME280;27838;43.858;25.974;2023-03-15T04:13:00;99929.88;;;8.99;40.25
42169;BME280;27838;43.858;25.974;2023-03-15T04:15:27;99922.09;;;8.96;40.41
42169;BME280;27838;43.858;25.974;2023-03-15T04:17:54;99927.28;;;8.96;40.78
42169;BME280;27838;43.858;25.974;2023-03-15T04:20:22;99927.28;;;8.98;41.18
42169;BME280;27838;43.858;25.974;2023-03-15T04:22:48;99923.81;;;8.99;41.17
42169;BME280;27838;43.858;25.974;2023-03-15T04:25:16;99919.47;;;8.98;40.69
42169;BME280;27838;43.858;25.974;2023-03-15T04:27:43;99934.22;;;8.99;40.69
42169;BME280;27838;43.858;25.974;2023-03-15T04:30:10;99935.97;;;8.97;40.71
42169;BME280;27838;43.858;25.974;2023-03-15T04:32:37;99942.03;;;8.93;41.17
42169;BME280;27838;43.858;25.974;2023-03-15T04:35:04;99942.91;;;8.95;40.94
42169;BME280;27838;43.858;25.974;2023-03-15T04:37:31;99941.19;;;8.87;41.04
42169;BME280;27838;43.858;25.974;2023-03-15T04:39:57;99944.69;;;8.90;40.81
42169;BME280;27838;43.858;25.974;2023-03-15T04:42:25;99939.34;;;9.08;41.17
42169;BME280;27838;43.858;25.974;2023-03-15T04:44:52;99937.13;;;9.72;40.16
42169;BME280;27838;43.858;25.974;2023-03-15T04:47:19;99934.50;;;10.57;37.81
42169;BME280;27838;43.858;25.974;2023-03-15T04:49:46;99928.59;;;11.64;35.82
42169;BME280;27838;43.858;25.974;2023-03-15T04:52:13;99931.28;;;12.09;34.50
42169;BME280;27838;43.858;25.974;2023-03-15T04:54:40;99933.59;;;11.76;35.00
42169;BME280;27838;43.858;25.974;2023-03-15T04:57:06;99936.91;;;11.33;35.46
42169;BME280;27838;43.858;25.974;2023-03-15T04:59:33;99929.69;;;10.93;36.13
42169;BME280;27838;43.858;25.974;2023-03-15T05:01:59;99923.16;;;10.63;36.37
42169;BME280;27838;43.858;25.974;2023-03-15T05:04:26;99922.56;;;10.41;37.33
42169;BME280;27838;43.858;25.974;2023-03-15T05:06:52;99927.91;;;10.25;37.93
42169;BME280;27838;43.858;25.974;2023-03-15T05:09:19;99912.53;;;10.00;37.90
42169;BME280;27838;43.858;25.974;2023-03-15T05:11:46;99926.50;;;9.93;38.53
42169;BME280;27838;43.858;25.974;2023-03-15T05:14:13;99914.47;;;9.80;38.40
42169;BME280;27838;43.858;25.974;2023-03-15T05:16:39;99917.97;;;9.79;39.02
42169;BME280;27838;43.858;25.974;2023-03-15T05:19:07;99918.91;;;9.73;38.80
42169;BME280;27838;43.858;25.974;2023-03-15T05:21:33;99920.63;;;9.74;39.45
42169;BME280;27838;43.858;25.974;2023-03-15T05:24:00;99906.72;;;9.77;39.02
42169;BME280;27838;43.858;25.974;2023-03-15T05:26:28;99890.25;;;9.75;38.97
42169;BME280;27838;43.858;25.974;2023-03-15T05:28:54;99895.44;;;9.78;39.18
42169;BME280;27838;43.858;25.974;2023-03-15T05:31:21;99894.63;;;9.71;39.20
42169;BME280;27838;43.858;25.974;2023-03-15T05:33:47;99896.38;;;9.68;39.24
42169;BME280;27838;43.858;25.974;2023-03-15T05:36:14;99901.56;;;9.72;39.40
42169;BME280;27838;43.858;25.974;2023-03-15T05:38:41;99898.06;;;9.75;39.80
42169;BME280;27838;43.858;25.974;2023-03-15T05:41:08;99892.00;;;9.71;39.70
42169;BME280;27838;43.858;25.974;2023-03-15T05:43:35;99897.19;;;9.74;39.61
42169;BME280;27838;43.858;25.974;2023-03-15T05:46:01;99897.28;;;9.68;39.98
42169;BME280;27838;43.858;25.974;2023-03-15T05:48:28;99899.03;;;9.64;40.20
42169;BME280;27838;43.858;25.974;2023-03-15T05:50:56;99896.41;;;9.66;39.82
42169;BME280;27838;43.858;25.974;2023-03-15T05:53:23;99894.66;;;9.68;40.07
42169;BME280;27838;43.858;25.974;2023-03-15T05:55:49;99903.28;;;9.73;40.13
42169;BME280;27838;43.858;25.974;2023-03-15T05:58:16;99905.84;;;9.75;41.04
42169;BME280;27838;43.858;25.974;2023-03-15T06:00:42;99901.53;;;9.75;40.89
42169;BME280;27838;43.858;25.974;2023-03-15T06:03:09;99907.50;;;9.85;40.48
42169;BME280;27838;43.858;25.974;2023-03-15T06:05:35;99904.03;;;9.86;40.67
42169;BME280;27838;43.858;25.974;2023-03-15T06:08:02;99898.84;;;9.85;41.49
42169;BME280;27838;43.858;25.974;2023-03-15T06:10:28;99889.34;;;9.79;41.57
42169;BME280;27838;43.858;25.974;2023-03-15T06:12:55;99897.91;;;9.90;41.19
42169;BME280;27838;43.858;25.974;2023-03-15T06:15:21;99899.50;;;10.02;40.98
42169;BME280;27838;43.858;25.974;2023-03-15T06:17:48;99886.34;;;10.17;40.60
42169;BME280;27838;43.858;25.974;2023-03-15T06:20:14;99887.94;;;10.29;40.33
42169;BME280;27838;43.858;25.974;2023-03-15T06:22:41;99882.59;;;10.42;40.49
42169;BME280;27838;43.858;25.974;2023-03-15T06:25:08;99879.03;;;10.49;40.17
42169;BME280;27838;43.858;25.974;2023-03-15T06:27:35;99879.75;;;10.58;40.76
42169;BME280;27838;43.858;25.974;2023-03-15T06:30:03;99876.25;;;10.61;40.67
42169;BME280;27838;43.858;25.974;2023-03-15T06:32:30;99876.06;;;10.76;40.44
42169;BME280;27838;43.858;25.974;2023-03-15T06:34:56;99874.94;;;10.93;40.44
42169;BME280;27838;43.858;25.974;2023-03-15T06:37:23;99874.88;;;10.96;40.80
42169;BME280;27838;43.858;25.974;2023-03-15T06:39:49;99874.69;;;11.08;40.47
42169;BME280;27838;43.858;25.974;2023-03-15T06:42:17;99869.22;;;11.25;40.62
42169;BME280;27838;43.858;25.974;2023-03-15T06:44:44;99879.31;;;11.45;40.37
42169;BME280;27838;43.858;25.974;2023-03-15T06:47:11;99874.59;;;11.67;39.92
42169;BME280;27838;43.858;25.974;2023-03-15T06:49:38;99867.31;;;11.85;39.76
42169;BME280;27838;43.858;25.974;2023-03-15T06:52:05;99873.31;;;11.90;39.43
42169;BME280;27838;43.858;25.974;2023-03-15T06:54:32;99874.78;;;12.05;39.34
42169;BME280;27838;43.858;25.974;2023-03-15T06:56:59;99873.81;;;12.09;39.54
42169;BME280;27838;43.858;25.974;2023-03-15T06:59:25;99876.25;;;12.18;39.21
42169;BME280;27838;43.858;25.974;2023-03-15T07:01:52;99878.59;;;12.32;39.25
42169;BME280;27838;43.858;25.974;2023-03-15T07:04:18;99883.72;;;12.35;39.37
42169;BME280;27838;43.858;25.974;2023-03-15T07:06:45;99876.59;;;12.43;38.96
42169;BME280;27838;43.858;25.974;2023-03-15T07:09:12;99877.31;;;12.52;39.02
42169;BME280;27838;43.858;25.974;2023-03-15T07:11:38;99874.56;;;12.56;39.38
42169;BME280;27838;43.858;25.974;2023-03-15T07:14:05;99869.22;;;12.62;39.31
42169;BME280;27838;43.858;25.974;2023-03-15T07:16:31;99863.81;;;12.70;39.31
42169;BME280;27838;43.858;25.974;2023-03-15T07:18:58;99860.22;;;12.76;39.13
42169;BME280;27838;43.858;25.974;2023-03-15T07:21:25;99855.59;;;12.87;39.16
42169;BME280;27838;43.858;25.974;2023-03-15T07:23:52;99863.16;;;12.99;38.96
42169;BME280;27838;43.858;25.974;2023-03-15T07:26:19;99854.34;;;13.03;38.91
42169;BME280;27838;43.858;25.974;2023-03-15T07:28:45;99851.63;;;13.07;39.15
42169;BME280;27838;43.858;25.974;2023-03-15T07:31:12;99856.84;;;13.08;39.26
42169;BME280;27838;43.858;25.974;2023-03-15T07:33:39;99856.81;;;13.10;39.58
42169;BME280;27838;43.858;25.974;2023-03-15T07:36:06;99854.84;;;13.19;40.23
42169;BME280;27838;43.858;25.974;2023-03-15T07:38:34;99845.13;;;13.25;40.67
42169;BME280;27838;43.858;25.974;2023-03-15T07:41:01;99843.88;;;13.39;40.18
42169;BME280;27838;43.858;25.974;2023-03-15T07:43:28;99835.78;;;13.49;39.41
42169;BME280;27838;43.858;25.974;2023-03-15T07:45:55;99843.41;;;13.58;39.76
42169;BME280;27838;43.858;25.974;2023-03-15T07:48:21;99843.50;;;13.55;39.80
42169;BME280;27838;43.858;25.974;2023-03-15T07:50:48;99841.69;;;13.57;39.89
42169;BME280;27838;43.858;25.974;2023-03-15T07:53:15;99833.84;;;13.57;39.99
42169;BME280;27838;43.858;25.974;2023-03-15T07:55:41;99842.34;;;13.65;39.90
42169;BME280;27838;43.858;25.974;2023-03-15T07:58:09;99832.44;;;13.76;39.77
42169;BME280;27838;43.858;25.974;2023-03-15T08:00:35;99814.06;;;13.78;39.71
42169;BME280;27838;43.858;25.974;2023-03-15T08:03:02;99821.97;;;13.76;39.51
42169;BME280;27838;43.858;25.974;2023-03-15T08:05:29;99824.44;;;13.50;40.13
42169;BME280;27838;43.858;25.974;2023-03-15T08:07:56;99827.38;;;13.37;40.63
42169;BME280;27838;43.858;25.974;2023-03-15T08:10:22;99828.19;;;13.39;40.04
42169;BME280;27838;43.858;25.974;2023-03-15T08:12:49;99821.97;;;13.44;40.51
42169;BME280;27838;43.858;25.974;2023-03-15T08:15:16;99817.34;;;13.53;39.35
42169;BME280;27838;43.858;25.974;2023-03-15T08:17:43;99818.94;;;13.59;39.38
42169;BME280;27838;43.858;25.974;2023-03-15T08:20:10;99811.66;;;13.70;39.26
42169;BME280;27838;43.858;25.974;2023-03-15T08:22:39;99808.63;;;13.86;38.88
42169;BME280;27838;43.858;25.974;2023-03-15T08:25:09;99803.03;;;13.98;38.74
42169;BME280;27838;43.858;25.974;2023-03-15T08:27:37;99797.91;;;13.93;38.47
42169;BME280;27838;43.858;25.974;2023-03-15T08:30:04;99799.88;;;13.85;38.75
42169;BME280;27838;43.858;25.974;2023-03-15T08:32:31;99794.63;;;13.87;38.91
42169;BME280;27838;43.858;25.974;2023-03-15T08:34:57;99793.53;;;13.94;39.01
42169;BME280;27838;43.858;25.974;2023-03-15T08:37:24;99795.66;;;14.11;38.53
42169;BME280;27838;43.858;25.974;2023-03-15T08:39:51;99798.81;;;14.22;38.68
42169;BME280;27838;43.858;25.974;2023-03-15T08:42:22;99800.13;;;14.37;38.16
42169;BME280;27838;43.858;25.974;2023-03-15T08:44:49;99804.00;;;14.53;37.75
42169;BME280;27838;43.858;25.974;2023-03-15T08:47:15;99799.25;;;14.38;38.33
42169;BME280;27838;43.858;25.974;2023-03-15T08:49:42;99801.41;;;14.24;38.29
42169;BME280;27838;43.858;25.974;2023-03-15T08:52:08;99810.19;;;14.23;38.59
42169;BME280;27838;43.858;25.974;2023-03-15T08:54:35;99825.78;;;14.26;38.59
42169;BME280;27838;43.858;25.974;2023-03-15T08:57:02;99825.53;;;14.35;38.21
42169;BME280;27838;43.858;25.974;2023-03-15T08:59:28;99821.97;;;14.38;38.34
42169;BME280;27838;43.858;25.974;2023-03-15T09:01:58;99824.78;;;14.31;37.93
42169;BME280;27838;43.858;25.974;2023-03-15T09:04:25;99821.56;;;14.22;38.22
42169;BME280;27838;43.858;25.974;2023-03-15T09:06:51;99822.91;;;14.35;38.27
42169;BME280;27838;43.858;25.974;2023-03-15T09:09:19;99819.25;;;14.41;37.75
42169;BME280;27838;43.858;25.974;2023-03-15T09:11:45;99825.34;;;14.41;37.23
42169;BME280;27838;43.858;25.974;2023-03-15T09:14:12;99830.22;;;14.53;36.95
42169;BME280;27838;43.858;25.974;2023-03-15T09:16:38;99816.72;;;14.67;37.24
42169;BME280;27838;43.858;25.974;2023-03-15T09:19:05;99804.88;;;14.82;37.17
42169;BME280;27838;43.858;25.974;2023-03-15T09:21:31;99803.19;;;15.08;36.55
42169;BME280;27838;43.858;25.974;2023-03-15T09:23:58;99806.94;;;15.26;36.66
42169;BME280;27838;43.858;25.974;2023-03-15T09:26:24;99810.28;;;15.31;36.63
42169;BME280;27838;43.858;25.974;2023-03-15T09:28:51;99809.84;;;15.43;36.34
42169;BME280;27838;43.858;25.974;2023-03-15T09:31:17;99811.03;;;15.35;35.40
42169;BME280;27838;43.858;25.974;2023-03-15T09:33:44;99812.81;;;15.34;36.39
42169;BME280;27838;43.858;25.974;2023-03-15T09:36:11;99801.97;;;15.43;36.26
42169;BME280;27838;43.858;25.974;2023-03-15T09:38:37;99799.13;;;15.49;36.26
42169;BME280;27838;43.858;25.974;2023-03-15T09:41:33;99794.94;;;15.44;35.72
42169;BME280;27838;43.858;25.974;2023-03-15T09:44:13;99796.72;;;15.43;36.09
42169;BME280;27838;43.858;25.974;2023-03-15T09:49:57;99787.88;;;15.71;34.94
42169;BME280;27838;43.858;25.974;2023-03-15T09:55:10;99789.91;;;16.12;34.57
42169;BME280;27838;43.858;25.974;2023-03-15T09:57:44;99786.72;;;16.27;34.45
42169;BME280;27838;43.858;25.974;2023-03-15T10:00:15;99780.50;;;16.28;34.41
42169;BME280;27838;43.858;25.974;2023-03-15T10:02:56;99794.66;;;16.48;34.09
42169;BME280;27838;43.858;25.974;2023-03-15T10:05:39;99789.47;;;16.46;34.26
42169;BME280;27838;43.858;25.974;2023-03-15T10:08:11;99796.81;;;16.60;33.62
42169;BME280;27838;43.858;25.974;2023-03-15T10:16:27;99791.06;;;16.72;33.71
42169;BME280;27838;43.858;25.974;2023-03-15T10:22:16;99797.91;;;16.32;34.10
42169;BME280;27838;43.858;25.974;2023-03-15T10:24:58;99787.88;;;16.42;34.16
42169;BME280;27838;43.858;25.974;2023-03-15T10:27:46;99782.84;;;16.58;33.51
42169;BME280;27838;43.858;25.974;2023-03-15T10:30:26;99777.47;;;16.61;33.56
42169;BME280;27838;43.858;25.974;2023-03-15T10:33:01;99767.06;;;16.58;33.21
42169;BME280;27838;43.858;25.974;2023-03-15T10:35:29;99773.56;;;16.71;33.02
42169;BME280;27838;43.858;25.974;2023-03-15T10:37:57;99772.19;;;16.85;32.79
42169;BME280;27838;43.858;25.974;2023-03-15T10:40:46;99769.66;;;17.04;32.70
42169;BME280;27838;43.858;25.974;2023-03-15T10:45:59;99757.31;;;17.66;32.14
42169;BME280;27838;43.858;25.974;2023-03-15T10:48:28;99760.16;;;17.80;31.75
42169;BME280;27838;43.858;25.974;2023-03-15T10:50:55;99761.22;;;17.97;31.29
42169;BME280;27838;43.858;25.974;2023-03-15T10:53:22;99750.25;;;18.06;31.31
42169;BME280;27838;43.858;25.974;2023-03-15T10:55:59;99746.84;;;18.04;31.00
42169;BME280;27838;43.858;25.974;2023-03-15T10:58:46;99745.41;;;17.97;31.17
42169;BME280;27838;43.858;25.974;2023-03-15T11:01:23;99745.41;;;17.97;30.93
42169;BME280;27838;43.858;25.974;2023-03-15T11:06:39;99731.44;;;17.95;30.48
42169;BME280;27838;43.858;25.974;2023-03-15T11:09:09;99726.50;;;17.87;30.68
42169;BME280;27838;43.858;25.974;2023-03-15T11:14:18;99713.59;;;17.81;31.21
42169;BME280;27838;43.858;25.974;2023-03-15T11:16:51;99713.66;;;17.79;31.04
42169;BME280;27838;43.858;25.974;2023-03-15T11:19:21;99704.09;;;17.77;31.24
42169;BME280;27838;43.858;25.974;2023-03-15T11:21:49;99702.34;;;17.77;31.49
42169;BME280;27838;43.858;25.974;2023-03-15T11:24:34;99701.25;;;17.81;31.03
42169;BME280;27838;43.858;25.974;2023-03-15T11:27:05;99685.06;;;17.70;30.84
42169;BME280;27838;43.858;25.974;2023-03-15T11:29:37;99682.88;;;17.61;31.30
42169;BME280;27838;43.858;25.974;2023-03-15T11:32:20;99690.34;;;17.70;31.05
42169;BME280;27838;43.858;25.974;2023-03-15T11:37:44;99668.00;;;17.98;29.97
42169;BME280;27838;43.858;25.974;2023-03-15T11:40:47;99666.50;;;18.11;29.96
42169;BME280;27838;43.858;25.974;2023-03-15T11:43:27;99659.56;;;18.27;29.57
42169;BME280;27838;43.858;25.974;2023-03-15T11:46:00;99653.53;;;18.43;29.76
42169;BME280;27838;43.858;25.974;2023-03-15T11:48:50;99650.13;;;18.58;29.28
42169;BME280;27838;43.858;25.974;2023-03-15T11:51:18;99661.09;;;18.68;29.03
42169;BME280;27838;43.858;25.974;2023-03-15T11:53:50;99655.56;;;18.73;28.71
42169;BME280;27838;43.858;25.974;2023-03-15T11:56:25;99658.44;;;18.68;28.81
42169;BME280;27838;43.858;25.974;2023-03-15T11:59:25;99653.31;;;18.65;29.40
42169;BME280;27838;43.858;25.974;2023-03-15T12:04:47;99654.97;;;18.31;29.60
42169;BME280;27838;43.858;25.974;2023-03-15T12:09:47;99664.59;;;17.96;30.59
42169;BME280;27838;43.858;25.974;2023-03-15T12:15:42;99663.03;;;17.91;30.31
42169;BME280;27838;43.858;25.974;2023-03-15T12:17:54;99664.31;;;18.02;30.33
42169;BME280;27838;43.858;25.974;2023-03-15T12:20:31;99659.50;;;18.10;30.34
42169;BME280;27838;43.858;25.974;2023-03-15T12:28:29;99640.88;;;18.32;30.31
42169;BME280;27838;43.858;25.974;2023-03-15T12:30:59;99648.72;;;18.34;29.73
42169;BME280;27838;43.858;25.974;2023-03-15T12:33:28;99646.56;;;18.42;29.88
42169;BME280;27838;43.858;25.974;2023-03-15T12:36:31;99646.88;;;18.53;29.94
42169;BME280;27838;43.858;25.974;2023-03-15T12:39:19;99647.78;;;18.52;30.88
42169;BME280;27838;43.858;25.974;2023-03-15T12:41:48;99651.50;;;18.48;30.83
42169;BME280;27838;43.858;25.974;2023-03-15T12:51:58;99634.28;;;18.58;30.06
42169;BME280;27838;43.858;25.974;2023-03-15T12:54:45;99638.66;;;18.59;30.07
42169;BME280;27838;43.858;25.974;2023-03-15T12:57:15;99629.78;;;18.60;30.08
42169;BME280;27838;43.858;25.974;2023-03-15T13:05:11;99623.97;;;18.54;30.39
42169;BME280;27838;43.858;25.974;2023-03-15T13:10:37;99624.97;;;18.68;29.96
42169;BME280;27838;43.858;25.974;2023-03-15T13:15:36;99625.97;;;18.66;29.84
42169;BME280;27838;43.858;25.974;2023-03-15T13:18:19;99634.78;;;18.66;29.95
42169;BME280;27838;43.858;25.974;2023-03-15T13:23:17;99635.13;;;18.59;30.59
42169;BME280;27838;43.858;25.974;2023-03-15T13:28:29;99631.50;;;18.61;30.04
42169;BME280;27838;43.858;25.974;2023-03-15T13:31:09;99633.81;;;18.67;30.21
42169;BME280;27838;43.858;25.974;2023-03-15T13:33:38;99633.38;;;18.59;30.51
42169;BME280;27838;43.858;25.974;2023-03-15T13:36:12;99629.25;;;18.54;29.39
42169;BME280;27838;43.858;25.974;2023-03-15T13:38:58;99631.72;;;18.57;30.07
42169;BME280;27838;43.858;25.974;2023-03-15T13:41:27;99642.06;;;18.44;30.52
42169;BME280;27838;43.858;25.974;2023-03-15T13:43:56;99634.97;;;18.44;30.41
42169;BME280;27838;43.858;25.974;2023-03-15T13:46:25;99637.56;;;18.46;30.57
42169;BME280;27838;43.858;25.974;2023-03-15T13:48:53;99635.75;;;18.46;30.66
42169;BME280;27838;43.858;25.974;2023-03-15T13:51:24;99642.13;;;18.42;30.49
42169;BME280;27838;43.858;25.974;2023-03-15T13:53:54;99638.00;;;18.19;30.86
42169;BME280;27838;43.858;25.974;2023-03-15T13:56:33;99637.50;;;18.11;30.99
42169;BME280;27838;43.858;25.974;2023-03-15T13:59:02;99633.16;;;18.10;31.05
42169;BME280;27838;43.858;25.974;2023-03-15T14:01:29;99634.56;;;18.17;30.91
42169;BME280;27838;43.858;25.974;2023-03-15T14:04:04;99634.41;;;18.20;30.83
42169;BME280;27838;43.858;25.974;2023-03-15T14:06:32;99631.78;;;18.20;30.96
42169;BME280;27838;43.858;25.974;2023-03-15T14:09:20;99631.47;;;18.26;31.17
42169;BME280;27838;43.858;25.974;2023-03-15T14:12:04;99639.16;;;18.31;31.59